Time;durP1;ratioP1;P1;durP2;ratioP2;P2;SDS_P1;SDS_P2;PMS_P1;PMS_P2;Temp;Humidity;BMP_temperature;BMP_pressure;BME280_temperature;BME280_humidity;BME280_pressure;Samples;Min_cycle;Max_cycle;Signal;HPM_P1;HPM_P2
2023/12/20 00:01:16;;;;;;;;;82.33;53.00;;;;;-0.95;100.00;99721.53;6311406;20;2898280;-47
2023/12/20 00:03:46;;;;;;;;;92.33;64.67;;;;;-0.40;100.00;99715.41;6311277;20;3644505;-47
2023/12/20 00:06:15;;;;;;;;;90.67;56.67;;;;;-0.30;100.00;99709.06;6309295;20;3649192;-47
2023/12/20 00:08:44;;;;;;;;;70.00;52.50;;;;;-0.68;100.00;99715.00;6307485;20;2878477;-47
2023/12/20 00:11:13;;;;;;;;;65.00;45.50;;;;;-0.52;100.00;99705.94;6278519;20;2877473;-50
2023/12/20 00:13:43;;;;;;;;;71.33;47.67;;;;;0.02;100.00;99697.06;6278872;20;2885873;-48
2023/12/20 00:16:12;;;;;;;;;67.67;49.33;;;;;-0.78;100.00;99711.63;6307538;20;2877333;-48
2023/12/20 00:18:42;;;;;;;;;76.00;51.33;;;;;-0.94;100.00;99707.47;6309563;20;2879451;-45
2023/12/20 00:21:11;;;;;;;;;69.00;49.50;;;;;-0.86;100.00;99702.97;6307529;20;2871204;-46
2023/12/20 00:23:41;;;;;;;;;71.33;52.33;;;;;-0.48;100.00;99701.47;6276704;20;2881715;-46
2023/12/20 00:26:10;;;;;;;;;84.67;62.00;;;;;-0.71;100.00;99702.72;6313709;20;3650238;-50
2023/12/20 00:28:38;;;;;;;;;75.50;55.50;;;;;-0.78;100.00;99693.16;6310463;20;2489876;-47
2023/12/20 00:31:07;;;;;;;;;66.00;48.00;;;;;-0.64;100.00;99690.31;6281515;20;2856638;-46
2023/12/20 00:33:37;;;;;;;;;76.33;51.33;;;;;-0.24;100.00;99687.88;6282206;20;2878548;-48
2023/12/20 00:36:06;;;;;;;;;79.33;54.00;;;;;-0.79;100.00;99686.16;6315490;20;3632522;-46
2023/12/20 00:38:35;;;;;;;;;70.00;51.50;;;;;-0.99;100.00;99683.81;6316235;20;2856050;-47
2023/12/20 00:41:04;;;;;;;;;69.50;52.50;;;;;-0.73;100.00;99683.41;6281747;20;2859695;-46
2023/12/20 00:43:34;;;;;;;;;81.33;56.33;;;;;-0.64;100.00;99678.91;6283567;20;2893201;-48
2023/12/20 00:46:03;;;;;;;;;68.00;47.50;;;;;-0.60;100.00;99676.19;6316147;20;2870149;-46
2023/12/20 00:48:32;;;;;;;;;75.00;44.00;;;;;-0.96;100.00;99669.72;6284363;20;2867976;-46
2023/12/20 00:51:01;;;;;;;;;82.33;60.00;;;;;-0.93;100.00;99673.19;6282048;20;3650320;-47
2023/12/20 00:53:29;;;;;;;;;75.50;58.00;;;;;-1.02;100.00;99661.94;6311941;20;2500256;-46
2023/12/20 00:55:59;;;;;;;;;79.67;58.00;;;;;-0.80;100.00;99654.53;6282860;20;2892020;-48
2023/12/20 00:58:27;;;;;;;;;68.50;53.00;;;;;-0.65;100.00;99650.81;6315423;20;2862775;-46
2023/12/20 01:00:58;;;;;;;;;77.33;55.33;;;;;-0.85;100.00;99649.34;6279098;20;2880519;-45
2023/12/20 01:03:27;;;;;;;;;76.67;52.00;;;;;-1.04;100.00;99642.63;6316515;20;2887946;-46
2023/12/20 01:05:57;;;;;;;;;65.00;46.00;;;;;-0.78;100.00;99639.59;6313466;20;2877535;-47
2023/12/20 01:08:26;;;;;;;;;67.00;51.50;;;;;-0.86;100.00;99629.16;6314867;20;2862777;-46
2023/12/20 01:10:54;;;;;;;;;69.50;54.00;;;;;-1.06;100.00;99618.06;6282858;20;2871210;-47
2023/12/20 01:13:23;;;;;;;;;75.00;54.50;;;;;-0.52;100.00;99623.31;6284975;20;2886886;-47
2023/12/20 01:15:53;;;;;;;;;82.67;55.33;;;;;-0.37;100.00;99619.53;6283798;20;2891059;-47
2023/12/20 01:18:23;;;;;;;;;85.00;53.00;;;;;-0.81;100.00;99618.56;6314932;20;2892001;-46
2023/12/20 01:20:51;;;;;;;;;80.67;55.33;;;;;-0.64;100.00;99610.34;6312566;20;2881517;-47
2023/12/20 01:23:21;;;;;;;;;88.67;57.00;;;;;-0.68;100.00;99609.53;6313060;20;3665877;-46
2023/12/20 01:25:50;;;;;;;;;82.67;61.33;;;;;-0.97;100.00;99607.41;6314185;20;3648188;-47
2023/12/20 01:28:19;;;;;;;;;78.50;57.50;;;;;-0.97;100.00;99603.00;6315813;20;2889910;-47
2023/12/20 01:30:49;;;;;;;;;78.33;56.67;;;;;-1.15;100.00;99598.00;6279478;20;2894283;-48
2023/12/20 01:33:18;;;;;;;;;77.33;58.33;;;;;-1.22;100.00;99581.41;6313670;20;2884727;-48
2023/12/20 01:35:48;;;;;;;;;99.00;63.33;;;;;-0.97;100.00;99588.94;6314981;20;3644038;-52
2023/12/20 01:38:18;;;;;;;;;80.00;61.00;;;;;-0.46;100.00;99583.66;6311939;20;2885691;-50
2023/12/20 01:40:48;;;;;;;;;91.67;61.00;;;;;-0.99;100.00;99586.31;6280439;20;3656513;-50
2023/12/20 01:43:17;;;;;;;;;85.75;61.75;;;;;-1.05;100.00;99590.81;6314195;20;3650307;-46
2023/12/20 01:45:48;;;;;;;;;87.33;58.00;;;;;-1.15;100.00;99584.84;6314817;20;3652460;-50
2023/12/20 01:48:18;;;;;;;;;115.67;80.00;;;;;-1.00;100.00;99581.06;6312173;20;3703395;-48
2023/12/20 01:50:48;;;;;;;;;79.00;54.67;;;;;-0.99;100.00;99573.16;6278502;20;2884616;-46
2023/12/20 01:53:21;;;;;;;;;78.00;58.00;;;;;-0.70;100.00;99564.75;6315218;20;2888874;-47
2023/12/20 01:55:52;;;;;;;;;64.50;53.00;;;;;-0.67;100.00;99562.03;6312385;20;2495166;-46
2023/12/20 01:58:23;;;;;;;;;106.33;71.33;;;;;-0.60;100.00;99561.94;6279906;20;3671096;-46
2023/12/20 02:00:54;;;;;;;;;84.33;61.67;;;;;-0.96;100.00;99549.38;6276499;20;2899348;-46
2023/12/20 02:03:24;;;;;;;;;77.67;57.33;;;;;-0.69;100.00;99548.00;6311480;20;2889885;-46
2023/12/20 02:05:53;;;;;;;;;72.67;52.67;;;;;-0.54;100.00;99546.00;6311384;20;2887849;-47
2023/12/20 02:08:22;;;;;;;;;68.50;50.00;;;;;-0.75;100.00;99544.63;6311597;20;2874309;-46
2023/12/20 02:10:51;;;;;;;;;76.00;51.50;;;;;-0.72;100.00;99534.03;6279551;20;2877417;-45
2023/12/20 02:13:20;;;;;;;;;64.00;46.00;;;;;-0.76;100.00;99521.81;6282435;20;2821130;-45
2023/12/20 02:15:49;;;;;;;;;81.33;57.00;;;;;-0.91;100.00;99525.59;6281305;20;2880516;-47
2023/12/20 02:18:19;;;;;;;;;87.67;63.67;;;;;-0.41;100.00;99529.06;6312484;20;3660676;-47
2023/12/20 02:20:49;;;;;;;;;253.67;206.00;;;;;-0.71;100.00;99518.19;6309654;20;3713897;-48
2023/12/20 02:23:19;;;;;;;;;92.33;68.00;;;;;-0.73;100.00;99514.72;6282964;20;3655500;-47
2023/12/20 02:25:48;;;;;;;;;83.00;55.00;;;;;-0.60;100.00;99502.19;6312267;20;3646093;-48
2023/12/20 02:28:18;;;;;;;;;83.67;61.00;;;;;-0.89;100.00;99495.69;6314287;20;3641929;-46
2023/12/20 02:30:49;;;;;;;;;82.33;55.33;;;;;-1.05;100.00;99493.31;6310500;20;2891131;-47
2023/12/20 02:33:19;;;;;;;;;80.00;55.33;;;;;-0.85;100.00;99493.84;6314007;20;3645058;-47
2023/12/20 02:35:48;;;;;;;;;82.00;57.33;;;;;-0.97;100.00;99479.13;6315201;20;3637773;-48
2023/12/20 02:38:17;;;;;;;;;77.50;57.00;;;;;-0.90;100.00;99470.19;6313097;20;2884691;-46
2023/12/20 02:40:47;;;;;;;;;82.67;61.33;;;;;-0.67;100.00;99474.19;6280491;20;3640974;-46
2023/12/20 02:43:18;;;;;;;;;85.00;58.67;;;;;-1.00;100.00;99479.19;6312498;20;3642073;-45
2023/12/20 02:45:48;;;;;;;;;82.00;58.00;;;;;-1.00;100.00;99471.31;6312678;20;2877516;-46
2023/12/20 02:48:18;;;;;;;;;76.00;61.00;;;;;-0.97;100.00;99471.22;6311669;20;2863807;-45
2023/12/20 02:50:48;;;;;;;;;78.67;58.33;;;;;-0.73;100.00;99467.28;6277275;20;2888908;-48
2023/12/20 02:53:18;;;;;;;;;81.33;59.00;;;;;-0.49;100.00;99467.69;6309021;20;2888882;-45
2023/12/20 02:55:48;;;;;;;;;97.33;68.67;;;;;-0.35;100.00;99464.75;6306118;20;3658570;-47
2023/12/20 02:58:17;;;;;;;;;92.67;63.33;;;;;-0.56;100.00;99466.06;6276709;20;3664855;-46
2023/12/20 03:00:47;;;;;;;;;94.33;67.67;;;;;-0.27;100.00;99465.47;6308006;20;2879422;-46
2023/12/20 03:03:17;;;;;;;;;96.67;67.00;;;;;-0.20;100.00;99459.16;6307273;20;3657567;-50
2023/12/20 03:05:46;;;;;;;;;76.00;57.00;;;;;-0.36;100.00;99463.88;6312296;20;2893079;-47
2023/12/20 03:08:15;;;;;;;;;77.50;53.00;;;;;-0.29;100.00;99454.06;6310369;20;2889865;-48
2023/12/20 03:10:45;;;;;;;;;78.00;55.33;;;;;-0.09;100.00;99453.66;6278645;20;2899820;-48
2023/12/20 03:13:15;;;;;;;;;86.33;60.33;;;;;-0.29;100.00;99440.88;6313407;20;2902526;-48
2023/12/20 03:15:45;;;;;;;;;80.33;59.33;;;;;-0.41;100.00;99439.38;6310482;20;3644123;-48
2023/12/20 03:18:14;;;;;;;;;91.00;67.00;;;;;-0.77;100.00;99436.59;6309969;20;3653460;-47
2023/12/20 03:20:47;;;;;;;;;84.67;61.67;;;;;-0.46;100.00;99444.75;6310257;20;3638880;-50
2023/12/20 03:23:17;;;;;;;;;88.67;61.00;;;;;-0.47;100.00;99439.53;6311049;20;3664868;-47
2023/12/20 03:25:46;;;;;;;;;73.33;55.33;;;;;-0.71;100.00;99443.50;6312905;20;2879447;-47
2023/12/20 03:28:16;;;;;;;;;79.00;54.33;;;;;-0.72;100.00;99440.00;6305232;20;2873322;-47
2023/12/20 03:30:45;;;;;;;;;73.00;55.50;;;;;-0.63;100.00;99438.06;6310532;20;2876405;-47
2023/12/20 03:33:15;;;;;;;;;78.00;50.00;;;;;-1.15;100.00;99430.28;6281629;20;2878465;-46
2023/12/20 03:35:43;;;;;;;;;71.50;47.00;;;;;-0.79;100.00;99425.22;6310079;20;2880500;-47
2023/12/20 03:38:12;;;;;;;;;73.00;49.00;;;;;-0.38;100.00;99427.91;6278781;20;2884686;-49
2023/12/20 03:40:41;;;;;;;;;82.67;51.67;;;;;-0.81;100.00;99419.09;6278439;20;3640954;-48
2023/12/20 03:43:11;;;;;;;;;78.67;58.33;;;;;-1.13;100.00;99431.13;6309136;20;2876304;-48
2023/12/20 03:45:40;;;;;;;;;76.67;52.00;;;;;-1.28;100.00;99433.19;6309496;20;3637751;-49
2023/12/20 03:48:10;;;;;;;;;82.33;60.67;;;;;-1.28;100.00;99430.53;6309211;20;3644153;-48
2023/12/20 03:50:38;;;;;;;;;79.00;58.00;;;;;-1.38;100.00;99435.09;6307465;20;2600286;-46
2023/12/20 03:53:06;;;;;;;;;69.00;52.50;;;;;-1.23;100.00;99432.19;6278260;20;2869001;-49
2023/12/20 03:55:36;;;;;;;;;101.33;73.00;;;;;-0.47;100.00;99434.25;6278945;20;3673204;-48
2023/12/20 03:58:04;;;;;;;;;79.00;55.50;;;;;-0.36;100.00;99444.56;6272100;20;2499288;-47
2023/12/20 04:00:33;;;;;;;;;72.50;54.50;;;;;-0.48;100.00;99433.34;6275865;20;2869196;-48
2023/12/20 04:03:02;;;;;;;;;83.67;63.00;;;;;-0.64;100.00;99426.66;6277674;20;2889866;-46
2023/12/20 04:05:32;;;;;;;;;74.00;55.33;;;;;-0.23;100.00;99428.44;6308802;20;2875306;-51
2023/12/20 04:08:04;;;;;;;;;80.33;55.67;;;;;-0.56;100.00;99426.50;6309061;20;3649211;-48
2023/12/20 04:10:33;;;;;;;;;78.00;57.67;;;;;-0.17;100.00;99431.84;6309376;20;3653366;-52
2023/12/20 04:13:01;;;;;;;;;79.00;56.00;;;;;-0.17;100.00;99431.84;6307571;20;2500409;-47
2023/12/20 04:15:31;;;;;;;;;77.00;54.67;;;;;0.06;100.00;99440.13;6276816;20;3646062;-45
2023/12/20 04:18:00;;;;;;;;;74.67;56.00;;;;;-0.12;100.00;99436.09;6309841;20;2886787;-48
2023/12/20 04:20:30;;;;;;;;;75.00;55.00;;;;;-0.17;100.00;99429.19;6309855;20;2880544;-46
2023/12/20 04:22:59;;;;;;;;;71.50;54.50;;;;;-0.06;100.00;99420.13;6311828;20;2879554;-46
2023/12/20 04:25:28;;;;;;;;;76.33;56.33;;;;;-0.16;100.00;99418.59;6279527;20;2880589;-47
2023/12/20 04:27:58;;;;;;;;;82.00;59.00;;;;;0.06;100.00;99418.13;6308165;20;3652333;-46
2023/12/20 04:30:28;;;;;;;;;75.33;57.00;;;;;0.09;100.00;99411.00;6309075;20;2881648;-48
2023/12/20 04:32:57;;;;;;;;;80.33;50.67;;;;;-0.48;100.00;99412.25;6310028;20;2886912;-48
2023/12/20 04:35:26;;;;;;;;;76.00;55.50;;;;;-0.68;100.00;99404.78;6311410;20;2879544;-47
2023/12/20 04:37:56;;;;;;;;;65.33;55.33;;;;;-0.25;100.00;99406.50;6276138;20;2864969;-48
2023/12/20 04:40:25;;;;;;;;;77.00;56.33;;;;;-0.08;100.00;99405.22;6307593;20;2880604;-48
2023/12/20 04:42:54;;;;;;;;;76.00;57.50;;;;;-0.11;100.00;99400.03;6309035;20;2881569;-49
2023/12/20 04:45:24;;;;;;;;;80.67;56.67;;;;;0.02;100.00;99401.47;6276744;20;3651349;-48
2023/12/20 04:47:55;;;;;;;;;80.00;57.00;;;;;-0.53;100.00;99394.81;6309313;20;3650356;-46
2023/12/20 04:50:24;;;;;;;;;72.33;53.67;;;;;-0.04;100.00;99391.94;6310909;20;2874238;-46
2023/12/20 04:52:54;;;;;;;;;81.67;57.33;;;;;-0.07;100.00;99393.78;6310040;20;2885811;-47
2023/12/20 04:55:24;;;;;;;;;73.67;55.00;;;;;-0.81;100.00;99384.84;6307300;20;2878493;-48
2023/12/20 04:57:54;;;;;;;;;88.67;62.33;;;;;-0.07;100.00;99380.59;6310624;20;3673165;-46
2023/12/20 05:00:22;;;;;;;;;78.50;53.50;;;;;-0.38;100.00;99385.69;6271821;20;2498328;-46
2023/12/20 05:02:52;;;;;;;;;74.33;56.67;;;;;-0.58;100.00;99386.13;6278685;20;2876376;-50
2023/12/20 05:05:21;;;;;;;;;78.00;56.50;;;;;-0.10;100.00;99385.97;6304712;20;2490258;-47
2023/12/20 05:07:52;;;;;;;;;71.33;51.33;;;;;-0.02;100.00;99376.09;6274710;20;2874496;-46
2023/12/20 05:10:22;;;;;;;;;69.33;51.00;;;;;-0.34;100.00;99382.97;6308338;20;2887766;-45
2023/12/20 05:12:50;;;;;;;;;73.00;53.00;;;;;-0.76;100.00;99375.06;6310591;20;2497125;-45
2023/12/20 05:15:19;;;;;;;;;78.33;58.00;;;;;-0.71;100.00;99374.97;6283003;20;2879457;-46
2023/12/20 05:17:49;;;;;;;;;67.67;49.33;;;;;-0.49;100.00;99363.06;6313679;20;2881645;-46
2023/12/20 05:20:19;;;;;;;;;73.67;51.00;;;;;-0.67;100.00;99364.31;6313864;20;2892022;-46
2023/12/20 05:22:48;;;;;;;;;71.00;54.00;;;;;-0.64;100.00;99360.75;6316525;20;2870105;-46
2023/12/20 05:25:16;;;;;;;;;72.50;52.00;;;;;-0.78;100.00;99349.66;6280577;20;2496142;-48
2023/12/20 05:27:46;;;;;;;;;79.00;60.00;;;;;-0.73;100.00;99356.56;6281902;20;2894198;-47
2023/12/20 05:30:14;;;;;;;;;73.00;54.50;;;;;-0.56;100.00;99348.28;6310509;20;2500410;-47
2023/12/20 05:32:44;;;;;;;;;80.33;58.33;;;;;-0.68;100.00;99352.06;6283955;20;2887118;-46
2023/12/20 05:35:15;;;;;;;;;72.33;51.67;;;;;-0.48;100.00;99329.66;6314876;20;2881603;-50
2023/12/20 05:37:45;;;;;;;;;73.33;51.33;;;;;-0.07;100.00;99307.56;6314741;20;2885758;-48
2023/12/20 05:40:15;;;;;;;;;79.67;54.00;;;;;-0.10;100.00;99286.56;6314079;20;2893151;-53
2023/12/20 05:42:45;;;;;;;;;80.00;48.67;;;;;-0.04;100.00;99288.16;6314102;20;2884740;-48
2023/12/20 05:45:15;;;;;;;;;75.50;56.00;;;;;-0.09;100.00;99308.53;6315336;20;2875274;-47
2023/12/20 05:47:44;;;;;;;;;89.67;62.00;;;;;-0.86;100.00;99294.47;6282996;20;3655445;-47
2023/12/20 05:50:15;;;;;;;;;83.33;55.33;;;;;-0.56;100.00;99297.31;6312499;20;2886734;-48
2023/12/20 05:52:44;;;;;;;;;83.33;59.00;;;;;-0.33;100.00;99297.66;6312661;20;2884743;-47
2023/12/20 05:55:14;;;;;;;;;85.00;59.67;;;;;-0.69;100.00;99316.03;6314024;20;3645108;-47
2023/12/20 05:57:43;;;;;;;;;80.33;59.33;;;;;-0.13;100.00;99312.13;6314333;20;3639816;-49
2023/12/20 06:00:15;;;;;;;;;75.33;57.33;;;;;-0.38;100.00;99318.00;6313414;20;2886000;-50
2023/12/20 06:02:44;;;;;;;;;76.00;55.00;;;;;-0.17;100.00;99302.56;6314296;20;2880513;-48
2023/12/20 06:05:12;;;;;;;;;59.00;48.00;;;;;-0.04;100.00;99317.19;6280354;20;2484756;-51
2023/12/20 06:07:41;;;;;;;;;71.50;47.50;;;;;-0.38;100.00;99312.72;6282217;20;2875239;-49
2023/12/20 06:10:10;;;;;;;;;81.00;57.50;;;;;-0.02;100.00;99315.38;6280714;20;2886825;-47
2023/12/20 06:12:40;;;;;;;;;54.67;41.33;;;;;-0.46;100.00;99320.81;6282614;20;2886794;-48
2023/12/20 06:15:10;;;;;;;;;81.00;57.33;;;;;-0.18;100.00;99332.50;6315160;20;3651356;-48
2023/12/20 06:17:39;;;;;;;;;82.00;54.00;;;;;-0.22;100.00;99329.91;6313960;20;2889858;-47
2023/12/20 06:20:10;;;;;;;;;72.67;54.00;;;;;-0.71;100.00;99336.31;6313655;20;2878403;-48
2023/12/20 06:22:40;;;;;;;;;73.33;51.00;;;;;-0.83;100.00;99336.56;6314201;20;2880557;-46
2023/12/20 06:25:09;;;;;;;;;73.00;54.00;;;;;-0.72;100.00;99334.56;6310761;20;2881604;-51
2023/12/20 06:27:39;;;;;;;;;84.00;59.00;;;;;-0.37;100.00;99325.03;6281598;20;2885819;-47
2023/12/20 06:30:11;;;;;;;;;76.00;55.00;;;;;-0.39;100.00;99321.53;6312404;20;2869145;-47
2023/12/20 06:32:42;;;;;;;;;74.00;56.33;;;;;-0.25;100.00;99321.22;6282926;20;2874280;-50
2023/12/20 06:35:11;;;;;;;;;88.00;60.00;;;;;-0.79;100.00;99317.16;6314739;20;2906622;-47
2023/12/20 06:37:42;;;;;;;;;74.67;54.67;;;;;-0.91;100.00;99307.72;6314259;20;2877354;-47
2023/12/20 06:40:12;;;;;;;;;72.50;54.50;;;;;-0.31;100.00;99311.69;6313436;20;2878376;-49
2023/12/20 06:42:47;;;;;;;;;72.75;47.00;;;;;-0.43;100.00;99309.31;6282050;20;3633613;-50
2023/12/20 06:45:33;;;;;;;;;72.00;50.50;;;;;-0.60;100.00;99301.81;6314704;20;2876341;-51
2023/12/20 06:48:03;;;;;;;;;78.00;55.33;;;;;-0.90;100.00;99298.06;6282939;20;2890999;-47
2023/12/20 06:50:34;;;;;;;;;72.00;52.00;;;;;-0.21;100.00;99307.06;6312594;20;2760681;-50
2023/12/20 06:53:06;;;;;;;;;74.50;56.00;;;;;-0.74;100.00;99307.38;6312380;20;2874308;-46
2023/12/20 06:55:37;;;;;;;;;72.00;53.00;;;;;-0.41;100.00;99306.66;6277634;20;2493006;-47
2023/12/20 06:58:07;;;;;;;;;68.33;47.00;;;;;-0.26;100.00;99296.63;6281990;20;2876346;-49
2023/12/20 07:00:36;;;;;;;;;70.50;54.50;;;;;-0.29;100.00;99290.53;6310685;20;2887787;-50
2023/12/20 07:03:06;;;;;;;;;77.67;53.00;;;;;-0.11;100.00;99289.22;6282177;20;2887854;-48
2023/12/20 07:05:34;;;;;;;;;69.00;51.00;;;;;-0.36;100.00;99295.09;6309540;20;2498190;-49
2023/12/20 07:08:03;;;;;;;;;74.50;52.00;;;;;-0.27;100.00;99294.84;6279404;20;2873193;-46
2023/12/20 07:10:32;;;;;;;;;76.67;56.33;;;;;-0.22;100.00;99287.69;6279402;20;3636702;-46
2023/12/20 07:13:01;;;;;;;;;72.50;54.50;;;;;-0.07;100.00;99293.53;6312582;20;2887763;-48
2023/12/20 07:15:31;;;;;;;;;102.33;76.00;;;;;0.06;100.00;99308.16;6280026;20;3661834;-53
2023/12/20 07:18:00;;;;;;;;;71.00;54.67;;;;;0.17;100.00;99321.06;6314117;20;2873222;-47
2023/12/20 07:20:29;;;;;;;;;59.50;48.50;;;;;0.01;100.00;99331.16;6312117;20;2879458;-51
2023/12/20 07:22:59;;;;;;;;;73.33;51.00;;;;;-0.22;100.00;99340.47;6281803;20;2886816;-47
2023/12/20 07:25:32;;;;;;;;;83.33;55.33;;;;;-0.28;100.00;99351.16;6312651;20;2886905;-48
2023/12/20 07:28:01;;;;;;;;;71.50;57.00;;;;;-0.32;100.00;99346.84;6312957;20;2861745;-50
2023/12/20 07:30:31;;;;;;;;;74.67;57.00;;;;;-0.35;100.00;99349.56;6280162;20;2870561;-46
2023/12/20 07:33:02;;;;;;;;;76.00;55.67;;;;;-0.25;100.00;99348.44;6314113;20;2877334;-48
2023/12/20 07:35:32;;;;;;;;;84.00;59.67;;;;;-0.56;100.00;99355.31;6307201;20;2890052;-48
2023/12/20 07:38:02;;;;;;;;;71.50;52.50;;;;;-0.23;100.00;99345.78;6312449;20;2875386;-48
2023/12/20 07:40:30;;;;;;;;;76.00;59.50;;;;;-0.12;100.00;99338.47;6273694;20;2500255;-46
2023/12/20 07:42:59;;;;;;;;;70.33;50.67;;;;;-0.16;100.00;99338.59;6281033;20;2880543;-47
2023/12/20 07:45:29;;;;;;;;;102.00;74.67;;;;;-0.27;100.00;99344.97;6312184;20;3676278;-49
2023/12/20 07:47:59;;;;;;;;;83.00;63.00;;;;;-0.02;100.00;99345.28;6311961;20;3636786;-46
2023/12/20 07:50:28;;;;;;;;;93.00;67.00;;;;;0.03;100.00;99339.91;6310403;20;3667979;-49
2023/12/20 07:53:00;;;;;;;;;90.33;61.00;;;;;0.13;100.00;99345.78;6312890;20;3658627;-49
2023/12/20 07:55:31;;;;;;;;;89.33;61.00;;;;;-0.10;100.00;99344.59;6310322;20;3666926;-46
2023/12/20 07:58:01;;;;;;;;;87.33;60.67;;;;;0.13;100.00;99346.69;6312594;20;3663783;-48
2023/12/20 08:00:30;;;;;;;;;72.33;55.00;;;;;0.11;100.00;99337.94;6308993;20;2859656;-51
2023/12/20 08:03:03;;;;;;;;;80.33;59.33;;;;;0.20;100.00;99342.97;6312883;20;2883782;-48
2023/12/20 08:05:32;;;;;;;;;71.00;54.00;;;;;0.22;100.00;99338.53;6312694;20;2822171;-48
2023/12/20 08:08:01;;;;;;;;;87.33;56.67;;;;;0.16;100.00;99338.69;6279661;20;2894026;-49
2023/12/20 08:10:31;;;;;;;;;90.00;63.33;;;;;0.08;100.00;99332.72;6310086;20;3659746;-49
2023/12/20 08:12:59;;;;;;;;;78.50;62.00;;;;;-0.31;100.00;99329.28;6307025;20;2500291;-45
2023/12/20 08:15:28;;;;;;;;;68.00;52.50;;;;;0.24;100.00;99327.03;6280567;20;2862249;-50
2023/12/20 08:17:57;;;;;;;;;72.00;54.50;;;;;0.44;100.00;99327.41;6281067;20;2871142;-48
2023/12/20 08:20:26;;;;;;;;;73.67;56.67;;;;;0.13;100.00;99325.56;6277997;20;3627370;-47
2023/12/20 08:23:08;;;;;;;;;85.67;61.67;;;;;0.39;100.00;99318.72;6311742;20;3655493;-47
2023/12/20 08:25:38;;;;;;;;;95.67;67.67;;;;;-0.04;100.00;99318.06;6310664;20;3664881;-46
2023/12/20 08:28:07;;;;;;;;;83.67;62.33;;;;;0.36;100.00;99306.47;6312634;20;3640959;-45
2023/12/20 08:30:37;;;;;;;;;72.00;56.33;;;;;-0.10;100.00;99312.06;6309033;20;2879476;-46
2023/12/20 08:33:12;;;;;;;;;81.00;57.67;;;;;-0.10;100.00;99312.06;6312522;20;2896258;-47
2023/12/20 08:35:42;;;;;;;;;72.00;52.00;;;;;0.09;100.00;99318.63;6311259;20;2882701;-49
2023/12/20 08:38:11;;;;;;;;;70.00;52.00;;;;;0.28;100.00;99318.16;6309537;20;2864845;-49
2023/12/20 08:40:41;;;;;;;;;74.00;57.00;;;;;0.40;100.00;99309.94;6278179;20;2885817;-46
2023/12/20 08:43:10;;;;;;;;;67.00;50.00;;;;;0.52;100.00;99317.50;6280978;20;2878398;-48
2023/12/20 08:45:39;;;;;;;;;82.67;59.00;;;;;0.28;100.00;99312.88;6280708;20;3656501;-45
2023/12/20 08:48:08;;;;;;;;;73.00;53.00;;;;;0.05;100.00;99316.09;6316135;20;2874329;-46
2023/12/20 08:50:38;;;;;;;;;79.33;59.33;;;;;0.69;100.00;99311.78;6284353;20;2889973;-48
2023/12/20 08:53:09;;;;;;;;;81.67;61.67;;;;;0.64;100.00;99301.31;6315955;20;2886864;-46
2023/12/20 08:55:37;;;;;;;;;72.00;57.00;;;;;0.51;100.00;99293.78;6317725;20;2858672;-48
2023/12/20 08:58:08;;;;;;;;;78.00;56.33;;;;;0.50;100.00;99287.66;6285012;20;3653519;-46
2023/12/20 09:00:38;;;;;;;;;80.33;56.33;;;;;0.55;100.00;99293.63;6318282;20;2898338;-45
2023/12/20 09:03:09;;;;;;;;;78.67;58.67;;;;;0.89;100.00;99292.72;6318190;20;3648276;-47
2023/12/20 09:05:38;;;;;;;;;78.00;57.33;;;;;0.63;100.00;99288.16;6319989;20;2890016;-46
2023/12/20 09:08:10;;;;;;;;;77.33;58.33;;;;;0.65;100.00;99296.91;6318085;20;3632615;-44
2023/12/20 09:10:40;;;;;;;;;68.33;53.33;;;;;0.90;100.00;99297.09;6315494;20;2897246;-44
2023/12/20 09:13:10;;;;;;;;;86.67;64.00;;;;;0.61;100.00;99301.41;6317392;20;3657574;-48
2023/12/20 09:15:39;;;;;;;;;77.33;58.00;;;;;0.83;100.00;99306.09;6317632;20;2877370;-46
2023/12/20 09:18:09;;;;;;;;;87.00;62.00;;;;;0.73;100.00;99307.25;6317339;20;3654588;-45
2023/12/20 09:20:38;;;;;;;;;76.00;58.33;;;;;0.86;100.00;99316.59;6283114;20;2871227;-44
2023/12/20 09:23:12;;;;;;;;;93.67;68.00;;;;;0.74;100.00;99301.06;6318997;20;3664874;-44
2023/12/20 09:25:42;;;;;;;;;78.67;58.33;;;;;0.27;100.00;99293.53;6316450;20;3651279;-46
2023/12/20 09:28:12;;;;;;;;;79.00;61.67;;;;;0.63;100.00;99289.03;6316782;20;2881620;-43
2023/12/20 09:30:44;;;;;;;;;87.67;63.67;;;;;0.97;100.00;99276.63;6314941;20;3648281;-45
2023/12/20 09:33:16;;;;;;;;;80.00;60.33;;;;;0.56;100.00;99279.53;6318334;20;3638190;-46
2023/12/20 09:35:46;;;;;;;;;85.00;61.00;;;;;0.85;100.00;99277.88;6318465;20;3642984;-45
2023/12/20 09:38:17;;;;;;;;;83.00;64.33;;;;;0.72;100.00;99277.34;6316363;20;2882693;-44
2023/12/20 09:40:47;;;;;;;;;85.67;61.33;;;;;0.77;100.00;99280.72;6316288;20;3662792;-46
2023/12/20 09:43:20;;;;;;;;;91.00;66.67;;;;;0.60;100.00;99286.47;6316001;20;3651364;-45
2023/12/20 09:45:54;;;;;;;;;83.67;59.67;;;;;0.74;100.00;99285.22;6317874;20;3640878;-44
2023/12/20 09:48:27;;;;;;;;;79.33;62.33;;;;;0.84;100.00;99284.94;6314118;20;3640069;-47
2023/12/20 09:50:57;;;;;;;;;86.00;64.00;;;;;0.64;100.00;99269.63;6313965;20;3646140;-47
2023/12/20 09:53:30;;;;;;;;;86.00;61.33;;;;;0.61;100.00;99264.44;6313913;20;3651394;-45
2023/12/20 09:56:00;;;;;;;;;88.33;64.33;;;;;0.85;100.00;99267.28;6312892;20;3644055;-45
2023/12/20 09:58:30;;;;;;;;;88.00;65.00;;;;;1.21;100.00;99260.06;6315965;20;3660702;-46
2023/12/20 10:01:00;;;;;;;;;80.33;59.67;;;;;0.98;100.00;99255.44;6313571;20;3643029;-46
2023/12/20 10:03:31;;;;;;;;;78.67;62.67;;;;;1.18;100.00;99253.97;6314390;20;2881536;-44
2023/12/20 10:06:01;;;;;;;;;85.67;60.33;;;;;1.38;100.00;99245.44;6314400;20;3659759;-44
2023/12/20 10:08:32;;;;;;;;;83.67;64.00;;;;;1.44;100.00;99239.94;6315528;20;3640910;-44
2023/12/20 10:11:03;;;;;;;;;95.33;66.67;;;;;1.05;100.00;99235.88;6314679;20;3645054;-44
2023/12/20 10:13:32;;;;;;;;;74.00;59.50;;;;;1.53;100.00;99229.94;6315376;20;2863804;-45
2023/12/20 10:16:02;;;;;;;;;87.00;65.67;;;;;1.49;100.00;99243.31;6283054;20;2873192;-45
2023/12/20 10:18:33;;;;;;;;;126.00;95.33;;;;;1.68;100.00;99235.66;6317731;20;3700353;-45
2023/12/20 10:21:09;;;;;;;;;86.67;63.67;;;;;1.48;100.00;99236.31;6281855;20;3658664;-44
2023/12/20 10:23:40;;;;;;;;;326.00;251.33;;;;;1.75;100.00;99234.53;6314238;20;3721125;-44
2023/12/20 10:26:21;;;;;;;;;108.75;83.25;;;;;1.73;100.00;99231.06;6282742;20;3693008;-43
2023/12/20 10:29:00;;;;;;;;;86.00;62.67;;;;;1.47;100.00;99232.78;6282230;20;3648288;-44
2023/12/20 10:31:33;;;;;;;;;91.00;68.67;;;;;1.86;100.00;99221.81;6316939;20;3632592;-44
2023/12/20 10:34:03;;;;;;;;;64.50;52.00;;;;;1.89;100.00;99219.03;6316113;20;2863897;-44
2023/12/20 10:36:34;;;;;;;;;87.33;68.33;;;;;1.56;100.00;99204.31;6283661;20;3634681;-44
2023/12/20 10:39:09;;;;;;;;;91.33;67.33;;;;;1.60;100.00;99203.28;6315483;20;3642973;-44
2023/12/20 10:41:41;;;;;;;;;85.67;64.00;;;;;2.05;100.00;99210.59;6312737;20;3645123;-45
2023/12/20 10:44:11;;;;;;;;;86.00;66.00;;;;;2.11;100.00;99202.44;6314526;20;2677388;-44
2023/12/20 10:46:47;;;;;;;;;94.00;65.00;;;;;1.93;100.00;99196.00;6315619;20;3653384;-48
2023/12/20 10:49:18;;;;;;;;;87.67;67.33;;;;;2.13;100.00;99197.94;6316561;20;2881852;-45
2023/12/20 10:51:49;;;;;;;;;86.67;67.33;;;;;1.82;100.00;99193.72;6313163;20;2894174;-45
2023/12/20 10:54:19;;;;;;;;;88.33;66.33;;;;;2.24;100.00;99187.84;6311751;20;3645084;-46
2023/12/20 10:56:52;;;;;;;;;95.00;69.33;;;;;2.04;100.00;99179.75;6314555;20;3657613;-44
2023/12/20 10:59:24;;;;;;;;;89.00;64.33;;;;;2.30;100.00;99162.94;6278395;20;3671112;-44
2023/12/20 11:01:57;;;;;;;;;93.33;67.67;;;;;1.63;100.00;99155.53;6313057;20;3655449;-44
2023/12/20 11:04:50;;;;;;;;;92.67;67.67;;;;;2.01;100.00;99153.38;6277181;20;2896244;-46
2023/12/20 11:07:54;;;;;;;;;95.00;71.67;;;;;2.10;100.00;99140.66;6314115;20;3655504;-44
2023/12/20 11:10:43;;;;;;;;;127.50;100.00;;;;;2.05;100.00;99126.72;6312077;20;4477286;-44